CheckWX is a tool to help pilots better visualize weather data.  It is not intended as a substitute for an official pre-flight weather briefing.

15:30:08 UTC

KCVS TAF
Cannon AFB Airport
Clovis, New Mexico, USA
TAF KCVS 171000Z 1710/1816 24008KT 9999 SKC QNH3009INS BECMG 1715/1716 23010G15KT 9999 SKC QNH2998INS BECMG 1718/1719 21015G25KT 9999 SKC QNH2988INS BECMG 1722/1723 20008KT 9999 SKC QNH2986INS BECMG 1808/1809 VRB06KT 9999 SKC QNH2988INS TX26/1722Z TN06/1712Z

Oct-17@
10:00 UTC

Oct-17 @ 10:00 UTC

Oct-17@
15:00 UTC

Oct-17 @ 15:00 UTC

TAF KCVS 171000Z 1710/1816 24008KT 9999 SKC QNH3009INS

Expired

Wind
  • 240° at 8 KTS
Cloud Levels
  • Clear skies

Oct-17@
15:00 UTC

Oct-17 @ 15:00 UTC

Oct-17@
18:00 UTC

Oct-17 @ 18:00 UTC

BECMG 1715/1716 23010G15KT 9999 SKC QNH2998INS

Becoming

Becoming Conditions expected by Thu, Oct 17, 2019 @ 16:00 UTC

Wind
  • 230° at 10 KTS
  • {Gusting to 15 KTS
Cloud Levels
  • Clear skies

Oct-17@
18:00 UTC

Oct-17 @ 18:00 UTC

Oct-17@
22:00 UTC

Oct-17 @ 22:00 UTC

BECMG 1718/1719 21015G25KT 9999 SKC QNH2988INS

Becoming

Becoming Conditions expected by Thu, Oct 17, 2019 @ 19:00 UTC

Wind
  • 210° at 15 KTS
  • {Gusting to 25 KTS
Cloud Levels
  • Clear skies

Oct-17@
22:00 UTC

Oct-17 @ 22:00 UTC

Oct-18@
08:00 UTC

Oct-18 @ 08:00 UTC

BECMG 1722/1723 20008KT 9999 SKC QNH2986INS

Becoming

Becoming Conditions expected by Thu, Oct 17, 2019 @ 23:00 UTC

Wind
  • 200° at 8 KTS
Cloud Levels
  • Clear skies

Oct-18@
08:00 UTC

Oct-18 @ 08:00 UTC

Oct-18@
16:00 UTC

Oct-18 @ 16:00 UTC

BECMG 1808/1809 VRB06KT 9999 SKC QNH2988INS TX26/1722Z TN06/1712Z

Becoming

Becoming Conditions expected by Fri, Oct 18, 2019 @ 09:00 UTC

Wind
  • Variable at 6 KTS
Cloud Levels
  • Clear skies